sensor_id;sensor_type;location;lat;lon;timestamp;temperature;humidity
29539;DHT22;16482;51.046;4.498;2023-05-07T00:00:21;24.30;45.30
29539;DHT22;16482;51.046;4.498;2023-05-07T00:02:57;24.30;45.30
29539;DHT22;16482;51.046;4.498;2023-05-07T00:05:25;24.30;45.30
29539;DHT22;16482;51.046;4.498;2023-05-07T00:07:54;24.30;45.30
29539;DHT22;16482;51.046;4.498;2023-05-07T00:10:23;24.30;45.30
29539;DHT22;16482;51.046;4.498;2023-05-07T00:12:52;24.30;45.30
29539;DHT22;16482;51.046;4.498;2023-05-07T00:15:23;24.30;45.30
29539;DHT22;16482;51.046;4.498;2023-05-07T00:17:53;24.30;45.40
29539;DHT22;16482;51.046;4.498;2023-05-07T00:20:26;24.30;45.40
29539;DHT22;16482;51.046;4.498;2023-05-07T00:22:52;24.30;45.40
29539;DHT22;16482;51.046;4.498;2023-05-07T00:25:24;24.30;45.40
29539;DHT22;16482;51.046;4.498;2023-05-07T00:27:52;24.30;45.40
29539;DHT22;16482;51.046;4.498;2023-05-07T00:30:26;24.30;45.40
29539;DHT22;16482;51.046;4.498;2023-05-07T00:32:54;24.30;45.40
29539;DHT22;16482;51.046;4.498;2023-05-07T00:35:23;24.30;45.40
29539;DHT22;16482;51.046;4.498;2023-05-07T00:37:52;24.30;45.40
29539;DHT22;16482;51.046;4.498;2023-05-07T00:40:23;24.30;45.40
29539;DHT22;16482;51.046;4.498;2023-05-07T00:42:57;24.30;45.40
29539;DHT22;16482;51.046;4.498;2023-05-07T00:45:27;24.30;45.40
29539;DHT22;16482;51.046;4.498;2023-05-07T00:47:58;24.30;45.40
29539;DHT22;16482;51.046;4.498;2023-05-07T00:50:25;24.30;45.40
29539;DHT22;16482;51.046;4.498;2023-05-07T00:52:55;24.30;45.40
29539;DHT22;16482;51.046;4.498;2023-05-07T00:55:24;24.30;45.40
29539;DHT22;16482;51.046;4.498;2023-05-07T00:57:57;24.30;45.40
29539;DHT22;16482;51.046;4.498;2023-05-07T01:00:26;24.30;45.40
29539;DHT22;16482;51.046;4.498;2023-05-07T01:02:52;24.30;45.50
29539;DHT22;16482;51.046;4.498;2023-05-07T01:05:24;24.30;45.50
29539;DHT22;16482;51.046;4.498;2023-05-07T01:07:53;24.30;45.40
29539;DHT22;16482;51.046;4.498;2023-05-07T01:10:23;24.30;45.50
29539;DHT22;16482;51.046;4.498;2023-05-07T01:12:54;24.30;45.50
29539;DHT22;16482;51.046;4.498;2023-05-07T01:15:22;24.30;45.50
29539;DHT22;16482;51.046;4.498;2023-05-07T01:17:56;24.30;45.50
29539;DHT22;16482;51.046;4.498;2023-05-07T01:20:25;24.30;45.50
29539;DHT22;16482;51.046;4.498;2023-05-07T01:22:54;24.30;45.60
29539;DHT22;16482;51.046;4.498;2023-05-07T01:25:24;24.30;45.50
29539;DHT22;16482;51.046;4.498;2023-05-07T01:27:53;24.30;45.60
29539;DHT22;16482;51.046;4.498;2023-05-07T01:30:26;24.30;45.60
29539;DHT22;16482;51.046;4.498;2023-05-07T01:33:06;24.30;45.60
29539;DHT22;16482;51.046;4.498;2023-05-07T01:35:39;24.30;45.60
29539;DHT22;16482;51.046;4.498;2023-05-07T01:38:06;24.30;45.70
29539;DHT22;16482;51.046;4.498;2023-05-07T01:40:33;24.30;45.70
29539;DHT22;16482;51.046;4.498;2023-05-07T01:43:03;24.30;45.60
29539;DHT22;16482;51.046;4.498;2023-05-07T01:45:30;24.30;45.70
29539;DHT22;16482;51.046;4.498;2023-05-07T01:47:58;24.30;45.60
29539;DHT22;16482;51.046;4.498;2023-05-07T01:50:25;24.30;45.70
29539;DHT22;16482;51.046;4.498;2023-05-07T01:52:53;24.30;45.70
29539;DHT22;16482;51.046;4.498;2023-05-07T01:55:28;24.30;45.70
29539;DHT22;16482;51.046;4.498;2023-05-07T01:57:54;24.30;45.70
29539;DHT22;16482;51.046;4.498;2023-05-07T02:00:23;24.30;45.70
29539;DHT22;16482;51.046;4.498;2023-05-07T02:02:57;24.30;45.70
29539;DHT22;16482;51.046;4.498;2023-05-07T02:05:25;24.30;45.70
29539;DHT22;16482;51.046;4.498;2023-05-07T02:07:54;24.30;45.70
29539;DHT22;16482;51.046;4.498;2023-05-07T02:10:27;24.20;45.60
29539;DHT22;16482;51.046;4.498;2023-05-07T02:12:53;24.30;45.70
29539;DHT22;16482;51.046;4.498;2023-05-07T02:15:24;24.30;45.70
29539;DHT22;16482;51.046;4.498;2023-05-07T02:18:07;24.30;45.70
29539;DHT22;16482;51.046;4.498;2023-05-07T02:20:33;24.30;45.60
29539;DHT22;16482;51.046;4.498;2023-05-07T02:22:59;24.20;45.70
29539;DHT22;16482;51.046;4.498;2023-05-07T02:25:25;24.20;45.70
29539;DHT22;16482;51.046;4.498;2023-05-07T02:27:54;24.20;45.70
29539;DHT22;16482;51.046;4.498;2023-05-07T02:30:24;24.30;45.80
29539;DHT22;16482;51.046;4.498;2023-05-07T02:32:59;24.20;45.60
29539;DHT22;16482;51.046;4.498;2023-05-07T02:35:25;24.30;45.70
29539;DHT22;16482;51.046;4.498;2023-05-07T02:37:54;24.20;45.70
29539;DHT22;16482;51.046;4.498;2023-05-07T02:40:29;24.30;45.80
29539;DHT22;16482;51.046;4.498;2023-05-07T02:42:59;24.30;45.70
29539;DHT22;16482;51.046;4.498;2023-05-07T02:45:25;24.20;45.70
29539;DHT22;16482;51.046;4.498;2023-05-07T02:47:54;24.20;45.70
29539;DHT22;16482;51.046;4.498;2023-05-07T02:50:28;24.20;45.70
29539;DHT22;16482;51.046;4.498;2023-05-07T02:52:54;24.30;45.70
29539;DHT22;16482;51.046;4.498;2023-05-07T02:55:27;24.30;45.80
29539;DHT22;16482;51.046;4.498;2023-05-07T02:57:53;24.20;45.70
29539;DHT22;16482;51.046;4.498;2023-05-07T03:00:22;24.20;45.70
29539;DHT22;16482;51.046;4.498;2023-05-07T03:02:59;24.30;45.70
29539;DHT22;16482;51.046;4.498;2023-05-07T03:05:25;24.30;45.80
29539;DHT22;16482;51.046;4.498;2023-05-07T03:07:54;24.20;45.70
29539;DHT22;16482;51.046;4.498;2023-05-07T03:10:25;24.20;45.70
29539;DHT22;16482;51.046;4.498;2023-05-07T03:12:53;24.20;45.80
29539;DHT22;16482;51.046;4.498;2023-05-07T03:15:27;24.20;45.80
29539;DHT22;16482;51.046;4.498;2023-05-07T03:17:52;24.20;45.70
29539;DHT22;16482;51.046;4.498;2023-05-07T03:20:26;24.20;45.70
29539;DHT22;16482;51.046;4.498;2023-05-07T03:22:52;24.20;45.70
29539;DHT22;16482;51.046;4.498;2023-05-07T03:25:25;24.20;45.80
29539;DHT22;16482;51.046;4.498;2023-05-07T03:27:54;24.20;45.80
29539;DHT22;16482;51.046;4.498;2023-05-07T03:30:28;24.20;45.80
29539;DHT22;16482;51.046;4.498;2023-05-07T03:32:55;24.20;45.80
29539;DHT22;16482;51.046;4.498;2023-05-07T03:35:28;24.20;45.80
29539;DHT22;16482;51.046;4.498;2023-05-07T03:37:54;24.20;45.80
29539;DHT22;16482;51.046;4.498;2023-05-07T03:40:22;24.20;45.80
29539;DHT22;16482;51.046;4.498;2023-05-07T03:42:55;24.20;45.90
29539;DHT22;16482;51.046;4.498;2023-05-07T03:45:24;24.20;45.80
29539;DHT22;16482;51.046;4.498;2023-05-07T03:47:53;24.20;45.80
29539;DHT22;16482;51.046;4.498;2023-05-07T03:50:24;24.20;45.90
29539;DHT22;16482;51.046;4.498;2023-05-07T03:52:53;24.20;45.80
29539;DHT22;16482;51.046;4.498;2023-05-07T03:55:28;24.20;45.90
29539;DHT22;16482;51.046;4.498;2023-05-07T03:57:54;24.20;45.90
29539;DHT22;16482;51.046;4.498;2023-05-07T04:00:25;24.20;45.90
29539;DHT22;16482;51.046;4.498;2023-05-07T04:02:53;24.10;46.00
29539;DHT22;16482;51.046;4.498;2023-05-07T04:05:26;24.20;46.00
29539;DHT22;16482;51.046;4.498;2023-05-07T04:07:55;24.20;46.00
29539;DHT22;16482;51.046;4.498;2023-05-07T04:10:30;24.20;46.00
29539;DHT22;16482;51.046;4.498;2023-05-07T04:12:56;24.20;46.00
29539;DHT22;16482;51.046;4.498;2023-05-07T04:15:25;24.20;46.00
29539;DHT22;16482;51.046;4.498;2023-05-07T04:17:59;24.20;46.00
29539;DHT22;16482;51.046;4.498;2023-05-07T04:20:25;24.20;46.00
29539;DHT22;16482;51.046;4.498;2023-05-07T04:23:00;24.20;46.00
29539;DHT22;16482;51.046;4.498;2023-05-07T04:25:26;24.20;46.00
29539;DHT22;16482;51.046;4.498;2023-05-07T04:27:55;24.20;46.00
29539;DHT22;16482;51.046;4.498;2023-05-07T04:30:29;24.20;46.10
29539;DHT22;16482;51.046;4.498;2023-05-07T04:32:56;24.20;46.00
29539;DHT22;16482;51.046;4.498;2023-05-07T04:35:27;24.20;46.10
29539;DHT22;16482;51.046;4.498;2023-05-07T04:37:55;24.20;46.00
29539;DHT22;16482;51.046;4.498;2023-05-07T04:40:26;24.20;46.10
29539;DHT22;16482;51.046;4.498;2023-05-07T04:42:55;24.20;46.10
29539;DHT22;16482;51.046;4.498;2023-05-07T04:45:24;24.20;46.10
29539;DHT22;16482;51.046;4.498;2023-05-07T04:47:57;24.20;46.10
29539;DHT22;16482;51.046;4.498;2023-05-07T04:50:26;24.20;46.10
29539;DHT22;16482;51.046;4.498;2023-05-07T04:52:55;24.20;46.20
29539;DHT22;16482;51.046;4.498;2023-05-07T04:55:28;24.20;46.20
29539;DHT22;16482;51.046;4.498;2023-05-07T04:57:54;24.20;46.20
29539;DHT22;16482;51.046;4.498;2023-05-07T05:00:26;24.10;46.20
29539;DHT22;16482;51.046;4.498;2023-05-07T05:03:01;24.20;46.20
29539;DHT22;16482;51.046;4.498;2023-05-07T05:05:27;24.20;46.30
29539;DHT22;16482;51.046;4.498;2023-05-07T05:08:02;24.20;46.30
29539;DHT22;16482;51.046;4.498;2023-05-07T05:10:28;24.20;46.30
29539;DHT22;16482;51.046;4.498;2023-05-07T05:12:56;24.20;46.30
29539;DHT22;16482;51.046;4.498;2023-05-07T05:15:31;24.20;46.30
29539;DHT22;16482;51.046;4.498;2023-05-07T05:17:57;24.20;46.90
29539;DHT22;16482;51.046;4.498;2023-05-07T05:20:26;24.20;46.30
29539;DHT22;16482;51.046;4.498;2023-05-07T05:22:59;24.20;46.40
29539;DHT22;16482;51.046;4.498;2023-05-07T05:25:25;24.20;46.40
29539;DHT22;16482;51.046;4.498;2023-05-07T05:27:59;24.10;46.50
29539;DHT22;16482;51.046;4.498;2023-05-07T05:30:27;24.20;46.40
29539;DHT22;16482;51.046;4.498;2023-05-07T05:32:56;24.20;46.50
29539;DHT22;16482;51.046;4.498;2023-05-07T05:35:27;24.20;46.50
29539;DHT22;16482;51.046;4.498;2023-05-07T05:38:00;24.10;46.50
29539;DHT22;16482;51.046;4.498;2023-05-07T05:40:26;24.10;46.50
29539;DHT22;16482;51.046;4.498;2023-05-07T05:42:55;24.10;46.50
29539;DHT22;16482;51.046;4.498;2023-05-07T05:45:29;24.10;46.60
29539;DHT22;16482;51.046;4.498;2023-05-07T05:47:56;24.10;46.50
29539;DHT22;16482;51.046;4.498;2023-05-07T05:50:30;24.20;46.60
29539;DHT22;16482;51.046;4.498;2023-05-07T05:52:58;24.20;46.60
29539;DHT22;16482;51.046;4.498;2023-05-07T05:55:27;24.20;47.30
29539;DHT22;16482;51.046;4.498;2023-05-07T05:57:56;24.10;46.60
29539;DHT22;16482;51.046;4.498;2023-05-07T06:00:24;24.10;46.70
29539;DHT22;16482;51.046;4.498;2023-05-07T06:02:55;24.10;46.70
29539;DHT22;16482;51.046;4.498;2023-05-07T06:05:30;24.10;46.70
29539;DHT22;16482;51.046;4.498;2023-05-07T06:07:56;24.20;46.80
29539;DHT22;16482;51.046;4.498;2023-05-07T06:10:25;24.10;46.80
29539;DHT22;16482;51.046;4.498;2023-05-07T06:13:00;24.10;46.80
29539;DHT22;16482;51.046;4.498;2023-05-07T06:15:28;24.20;46.80
29539;DHT22;16482;51.046;4.498;2023-05-07T06:17:57;24.20;46.80
29539;DHT22;16482;51.046;4.498;2023-05-07T06:20:26;24.20;46.90
29539;DHT22;16482;51.046;4.498;2023-05-07T06:22:59;24.20;46.90
29539;DHT22;16482;51.046;4.498;2023-05-07T06:25:28;24.10;46.90
29539;DHT22;16482;51.046;4.498;2023-05-07T06:27:57;24.10;46.90
29539;DHT22;16482;51.046;4.498;2023-05-07T06:30:30;24.20;46.90
29539;DHT22;16482;51.046;4.498;2023-05-07T06:32:56;24.10;46.90
29539;DHT22;16482;51.046;4.498;2023-05-07T06:35:31;24.10;46.90
29539;DHT22;16482;51.046;4.498;2023-05-07T06:37:59;24.20;46.90
29539;DHT22;16482;51.046;4.498;2023-05-07T06:40:28;24.10;47.00
29539;DHT22;16482;51.046;4.498;2023-05-07T06:42:54;24.10;47.00
29539;DHT22;16482;51.046;4.498;2023-05-07T06:45:32;24.10;47.40
29539;DHT22;16482;51.046;4.498;2023-05-07T06:47:58;24.10;47.50
29539;DHT22;16482;51.046;4.498;2023-05-07T06:50:24;24.10;47.60
29539;DHT22;16482;51.046;4.498;2023-05-07T06:52:59;24.10;47.50
29539;DHT22;16482;51.046;4.498;2023-05-07T06:55:28;24.10;47.50
29539;DHT22;16482;51.046;4.498;2023-05-07T06:57:57;24.10;47.60
29539;DHT22;16482;51.046;4.498;2023-05-07T07:00:27;24.10;47.50
29539;DHT22;16482;51.046;4.498;2023-05-07T07:02:58;24.10;47.40
29539;DHT22;16482;51.046;4.498;2023-05-07T07:05:32;24.10;47.30
29539;DHT22;16482;51.046;4.498;2023-05-07T07:07:58;24.20;47.40
29539;DHT22;16482;51.046;4.498;2023-05-07T07:10:33;24.20;47.40
29539;DHT22;16482;51.046;4.498;2023-05-07T07:12:59;24.30;47.40
29539;DHT22;16482;51.046;4.498;2023-05-07T07:15:27;24.30;47.40
29539;DHT22;16482;51.046;4.498;2023-05-07T07:17:56;24.20;47.40
29539;DHT22;16482;51.046;4.498;2023-05-07T07:20:30;24.30;47.40
29539;DHT22;16482;51.046;4.498;2023-05-07T07:22:56;24.30;47.30
29539;DHT22;16482;51.046;4.498;2023-05-07T07:25:31;24.20;47.30
29539;DHT22;16482;51.046;4.498;2023-05-07T07:27:57;24.30;47.30
29539;DHT22;16482;51.046;4.498;2023-05-07T07:30:25;24.20;47.30
29539;DHT22;16482;51.046;4.498;2023-05-07T07:32:54;24.30;47.30
29539;DHT22;16482;51.046;4.498;2023-05-07T07:35:25;24.30;47.30
29539;DHT22;16482;51.046;4.498;2023-05-07T07:37:59;24.30;47.30
29539;DHT22;16482;51.046;4.498;2023-05-07T07:40:28;24.30;47.20
29539;DHT22;16482;51.046;4.498;2023-05-07T07:42:56;24.30;47.20
29539;DHT22;16482;51.046;4.498;2023-05-07T07:45:28;24.30;47.30
29539;DHT22;16482;51.046;4.498;2023-05-07T07:47:57;24.30;47.30
29539;DHT22;16482;51.046;4.498;2023-05-07T07:50:25;24.30;47.50
29539;DHT22;16482;51.046;4.498;2023-05-07T07:52:58;24.30;47.50
29539;DHT22;16482;51.046;4.498;2023-05-07T07:55:24;24.30;47.60
29539;DHT22;16482;51.046;4.498;2023-05-07T07:58:00;24.30;47.60
29539;DHT22;16482;51.046;4.498;2023-05-07T08:00:29;24.30;47.70
29539;DHT22;16482;51.046;4.498;2023-05-07T08:02:57;24.30;47.70
29539;DHT22;16482;51.046;4.498;2023-05-07T08:05:26;24.30;47.80
29539;DHT22;16482;51.046;4.498;2023-05-07T08:07:59;24.30;47.90
29539;DHT22;16482;51.046;4.498;2023-05-07T08:10:25;24.30;47.90
29539;DHT22;16482;51.046;4.498;2023-05-07T08:12:54;24.30;47.90
29539;DHT22;16482;51.046;4.498;2023-05-07T08:15:29;24.30;47.90
29539;DHT22;16482;51.046;4.498;2023-05-07T08:17:58;24.30;48.00
29539;DHT22;16482;51.046;4.498;2023-05-07T08:20:28;24.30;48.00
29539;DHT22;16482;51.046;4.498;2023-05-07T08:23:03;24.30;48.00
29539;DHT22;16482;51.046;4.498;2023-05-07T08:25:29;24.30;48.10
29539;DHT22;16482;51.046;4.498;2023-05-07T08:27:57;24.30;48.10
29539;DHT22;16482;51.046;4.498;2023-05-07T08:30:32;24.30;48.20
29539;DHT22;16482;51.046;4.498;2023-05-07T08:32:57;24.30;48.20
29539;DHT22;16482;51.046;4.498;2023-05-07T08:35:26;24.30;48.30
29539;DHT22;16482;51.046;4.498;2023-05-07T08:37:56;24.30;48.40
29539;DHT22;16482;51.046;4.498;2023-05-07T08:40:37;24.30;48.40
29539;DHT22;16482;51.046;4.498;2023-05-07T08:43:05;24.30;48.40
29539;DHT22;16482;51.046;4.498;2023-05-07T08:45:33;24.30;48.50
29539;DHT22;16482;51.046;4.498;2023-05-07T08:48:02;24.30;48.50
29539;DHT22;16482;51.046;4.498;2023-05-07T08:50:28;24.30;49.10
29539;DHT22;16482;51.046;4.498;2023-05-07T08:52:57;24.30;48.60
29539;DHT22;16482;51.046;4.498;2023-05-07T08:55:31;24.30;48.50
29539;DHT22;16482;51.046;4.498;2023-05-07T08:57:59;24.30;48.60
29539;DHT22;16482;51.046;4.498;2023-05-07T09:00:27;24.30;48.50
29539;DHT22;16482;51.046;4.498;2023-05-07T09:02:56;24.30;48.70
29539;DHT22;16482;51.046;4.498;2023-05-07T09:05:27;24.30;48.60
29539;DHT22;16482;51.046;4.498;2023-05-07T09:07:59;24.30;48.70
29539;DHT22;16482;51.046;4.498;2023-05-07T09:10:26;24.30;48.80
29539;DHT22;16482;51.046;4.498;2023-05-07T09:13:02;24.30;48.90
29539;DHT22;16482;51.046;4.498;2023-05-07T09:15:28;24.30;48.90
29539;DHT22;16482;51.046;4.498;2023-05-07T09:18:01;24.30;49.00
29539;DHT22;16482;51.046;4.498;2023-05-07T09:20:30;24.30;49.10
29539;DHT22;16482;51.046;4.498;2023-05-07T09:22:58;24.30;49.10
29539;DHT22;16482;51.046;4.498;2023-05-07T09:25:31;24.30;49.30
29539;DHT22;16482;51.046;4.498;2023-05-07T09:27:58;24.30;49.20
29539;DHT22;16482;51.046;4.498;2023-05-07T09:30:28;24.30;49.30
29539;DHT22;16482;51.046;4.498;2023-05-07T09:32:58;24.30;49.20
29539;DHT22;16482;51.046;4.498;2023-05-07T09:35:27;24.30;49.30
29539;DHT22;16482;51.046;4.498;2023-05-07T09:38:01;24.30;49.30
29539;DHT22;16482;51.046;4.498;2023-05-07T09:40:29;24.30;49.20
29539;DHT22;16482;51.046;4.498;2023-05-07T09:42:56;24.30;49.30
29539;DHT22;16482;51.046;4.498;2023-05-07T09:45:36;24.30;49.30
29539;DHT22;16482;51.046;4.498;2023-05-07T09:48:05;24.30;49.40
29539;DHT22;16482;51.046;4.498;2023-05-07T09:50:44;24.30;49.40
29539;DHT22;16482;51.046;4.498;2023-05-07T09:53:13;24.30;49.40
29539;DHT22;16482;51.046;4.498;2023-05-07T09:55:40;24.30;49.40
29539;DHT22;16482;51.046;4.498;2023-05-07T09:58:07;24.30;49.50
29539;DHT22;16482;51.046;4.498;2023-05-07T10:00:33;24.30;49.40
29539;DHT22;16482;51.046;4.498;2023-05-07T10:03:00;24.30;49.60
29539;DHT22;16482;51.046;4.498;2023-05-07T10:05:27;24.30;49.50
29539;DHT22;16482;51.046;4.498;2023-05-07T10:07:56;24.30;49.80
29539;DHT22;16482;51.046;4.498;2023-05-07T10:10:32;24.30;49.60
29539;DHT22;16482;51.046;4.498;2023-05-07T10:12:59;24.30;49.70
29539;DHT22;16482;51.046;4.498;2023-05-07T10:15:29;24.30;49.80
29539;DHT22;16482;51.046;4.498;2023-05-07T10:17:58;24.30;49.80
29539;DHT22;16482;51.046;4.498;2023-05-07T10:20:33;24.30;49.70
29539;DHT22;16482;51.046;4.498;2023-05-07T10:22:59;24.40;49.70
29539;DHT22;16482;51.046;4.498;2023-05-07T10:25:29;24.30;49.70
29539;DHT22;16482;51.046;4.498;2023-05-07T10:27:59;24.30;49.90
29539;DHT22;16482;51.046;4.498;2023-05-07T10:30:33;24.30;49.90
29539;DHT22;16482;51.046;4.498;2023-05-07T10:33:05;24.30;50.00
29539;DHT22;16482;51.046;4.498;2023-05-07T10:35:37;24.30;50.00
29539;DHT22;16482;51.046;4.498;2023-05-07T10:38:05;24.30;50.00
29539;DHT22;16482;51.046;4.498;2023-05-07T10:40:31;24.30;50.30
29539;DHT22;16482;51.046;4.498;2023-05-07T10:43:02;24.30;50.20
29539;DHT22;16482;51.046;4.498;2023-05-07T10:45:30;24.30;50.10
29539;DHT22;16482;51.046;4.498;2023-05-07T10:48:16;24.30;50.30
29539;DHT22;16482;51.046;4.498;2023-05-07T10:50:43;24.30;50.20
29539;DHT22;16482;51.046;4.498;2023-05-07T10:55:52;24.30;50.50
29539;DHT22;16482;51.046;4.498;2023-05-07T10:58:46;24.30;50.50
29539;DHT22;16482;51.046;4.498;2023-05-07T11:01:14;24.30;50.90
29539;DHT22;16482;51.046;4.498;2023-05-07T11:04:16;24.30;50.90
29539;DHT22;16482;51.046;4.498;2023-05-07T11:17:29;24.30;50.90
29539;DHT22;16482;51.046;4.498;2023-05-07T11:19:57;24.30;50.90
29539;DHT22;16482;51.046;4.498;2023-05-07T11:25:03;24.30;51.80
29539;DHT22;16482;51.046;4.498;2023-05-07T11:27:29;24.30;51.50
29539;DHT22;16482;51.046;4.498;2023-05-07T11:29:55;24.30;51.40
29539;DHT22;16482;51.046;4.498;2023-05-07T11:32:28;24.40;50.90
29539;DHT22;16482;51.046;4.498;2023-05-07T11:34:56;24.40;50.70
29539;DHT22;16482;51.046;4.498;2023-05-07T11:37:23;24.40;50.60
29539;DHT22;16482;51.046;4.498;2023-05-07T11:39:49;24.40;50.90
29539;DHT22;16482;51.046;4.498;2023-05-07T11:42:31;24.40;51.10
29539;DHT22;16482;51.046;4.498;2023-05-07T11:44:58;24.40;51.00
29539;DHT22;16482;51.046;4.498;2023-05-07T11:47:24;24.50;50.90
29539;DHT22;16482;51.046;4.498;2023-05-07T11:49:54;24.50;51.00
29539;DHT22;16482;51.046;4.498;2023-05-07T11:52:22;24.50;50.90
29539;DHT22;16482;51.046;4.498;2023-05-07T11:54:56;24.60;50.80
29539;DHT22;16482;51.046;4.498;2023-05-07T11:57:24;24.60;50.80
29539;DHT22;16482;51.046;4.498;2023-05-07T11:59:59;24.60;50.80
29539;DHT22;16482;51.046;4.498;2023-05-07T12:02:26;24.60;50.80
29539;DHT22;16482;51.046;4.498;2023-05-07T12:04:54;24.60;51.40
29539;DHT22;16482;51.046;4.498;2023-05-07T12:07:20;24.60;50.90
29539;DHT22;16482;51.046;4.498;2023-05-07T12:09:46;24.60;50.90
29539;DHT22;16482;51.046;4.498;2023-05-07T12:12:13;24.60;50.60
29539;DHT22;16482;51.046;4.498;2023-05-07T12:14:44;24.60;50.60
29539;DHT22;16482;51.046;4.498;2023-05-07T12:17:11;24.60;50.70
29539;DHT22;16482;51.046;4.498;2023-05-07T12:19:39;24.70;50.70
29539;DHT22;16482;51.046;4.498;2023-05-07T12:22:06;24.70;50.80
29539;DHT22;16482;51.046;4.498;2023-05-07T12:27:09;24.70;50.70
29539;DHT22;16482;51.046;4.498;2023-05-07T12:29:35;24.80;50.80
29539;DHT22;16482;51.046;4.498;2023-05-07T12:32:18;24.80;50.80
29539;DHT22;16482;51.046;4.498;2023-05-07T12:34:45;24.80;50.70
29539;DHT22;16482;51.046;4.498;2023-05-07T12:37:12;24.70;50.70
29539;DHT22;16482;51.046;4.498;2023-05-07T12:39:44;24.80;50.70
29539;DHT22;16482;51.046;4.498;2023-05-07T12:42:15;24.80;50.60
29539;DHT22;16482;51.046;4.498;2023-05-07T12:44:43;24.80;50.60
29539;DHT22;16482;51.046;4.498;2023-05-07T12:47:10;24.80;50.70
29539;DHT22;16482;51.046;4.498;2023-05-07T12:49:37;24.80;50.90
29539;DHT22;16482;51.046;4.498;2023-05-07T12:52:07;24.80;50.70
29539;DHT22;16482;51.046;4.498;2023-05-07T12:54:42;24.80;50.60
29539;DHT22;16482;51.046;4.498;2023-05-07T12:57:10;24.90;50.80
29539;DHT22;16482;51.046;4.498;2023-05-07T12:59:40;24.80;50.80
29539;DHT22;16482;51.046;4.498;2023-05-07T13:02:07;24.90;50.80
29539;DHT22;16482;51.046;4.498;2023-05-07T13:04:38;24.90;50.80
29539;DHT22;16482;51.046;4.498;2023-05-07T13:07:07;24.90;50.70
29539;DHT22;16482;51.046;4.498;2023-05-07T13:09:41;24.90;50.70
29539;DHT22;16482;51.046;4.498;2023-05-07T13:12:07;24.90;50.70
29539;DHT22;16482;51.046;4.498;2023-05-07T13:14:35;24.90;50.70
29539;DHT22;16482;51.046;4.498;2023-05-07T13:17:06;24.90;50.80
29539;DHT22;16482;51.046;4.498;2023-05-07T13:19:40;24.90;50.70
29539;DHT22;16482;51.046;4.498;2023-05-07T13:22:08;24.90;50.60
29539;DHT22;16482;51.046;4.498;2023-05-07T13:24:36;24.90;50.70
29539;DHT22;16482;51.046;4.498;2023-05-07T13:27:10;24.90;50.80
29539;DHT22;16482;51.046;4.498;2023-05-07T13:29:36;24.90;50.70
29539;DHT22;16482;51.046;4.498;2023-05-07T13:32:09;24.90;50.70
29539;DHT22;16482;51.046;4.498;2023-05-07T13:34:38;24.90;50.60
29539;DHT22;16482;51.046;4.498;2023-05-07T13:37:07;24.90;50.70
29539;DHT22;16482;51.046;4.498;2023-05-07T13:39:36;24.90;50.70
29539;DHT22;16482;51.046;4.498;2023-05-07T13:42:06;24.90;50.60
29539;DHT22;16482;51.046;4.498;2023-05-07T13:44:41;24.90;50.60
29539;DHT22;16482;51.046;4.498;2023-05-07T13:47:09;24.90;50.60
29539;DHT22;16482;51.046;4.498;2023-05-07T13:49:37;24.90;50.50
29539;DHT22;16482;51.046;4.498;2023-05-07T13:52:06;24.90;50.40
29539;DHT22;16482;51.046;4.498;2023-05-07T13:54:39;25.00;50.30
29539;DHT22;16482;51.046;4.498;2023-05-07T13:57:08;25.00;50.40
29539;DHT22;16482;51.046;4.498;2023-05-07T13:59:36;24.90;50.30
29539;DHT22;16482;51.046;4.498;2023-05-07T14:02:11;24.90;50.30
29539;DHT22;16482;51.046;4.498;2023-05-07T14:04:37;25.00;50.40
29539;DHT22;16482;51.046;4.498;2023-05-07T14:07:06;24.90;50.40
29539;DHT22;16482;51.046;4.498;2023-05-07T14:09:40;24.90;50.30
29539;DHT22;16482;51.046;4.498;2023-05-07T14:12:08;25.00;50.20
29539;DHT22;16482;51.046;4.498;2023-05-07T14:14:42;25.00;50.20
29539;DHT22;16482;51.046;4.498;2023-05-07T14:17:08;25.00;50.20
29539;DHT22;16482;51.046;4.498;2023-05-07T14:19:42;25.00;50.10
29539;DHT22;16482;51.046;4.498;2023-05-07T14:22:08;25.00;50.10
29539;DHT22;16482;51.046;4.498;2023-05-07T14:24:38;25.00;50.10
29539;DHT22;16482;51.046;4.498;2023-05-07T14:27:07;25.00;50.00
29539;DHT22;16482;51.046;4.498;2023-05-07T14:29:41;25.00;50.10
29539;DHT22;16482;51.046;4.498;2023-05-07T14:32:08;25.10;50.10
29539;DHT22;16482;51.046;4.498;2023-05-07T14:34:37;25.00;50.20
29539;DHT22;16482;51.046;4.498;2023-05-07T14:37:10;25.10;50.10
29539;DHT22;16482;51.046;4.498;2023-05-07T14:39:39;25.10;50.00
29539;DHT22;16482;51.046;4.498;2023-05-07T14:42:05;25.00;50.00
29539;DHT22;16482;51.046;4.498;2023-05-07T14:44:42;25.00;49.90
29539;DHT22;16482;51.046;4.498;2023-05-07T14:47:08;25.10;49.80
29539;DHT22;16482;51.046;4.498;2023-05-07T14:49:37;25.00;49.90
29539;DHT22;16482;51.046;4.498;2023-05-07T14:52:11;25.10;50.00
29539;DHT22;16482;51.046;4.498;2023-05-07T14:54:37;25.10;50.00
29539;DHT22;16482;51.046;4.498;2023-05-07T14:57:07;25.10;50.10
29539;DHT22;16482;51.046;4.498;2023-05-07T14:59:37;25.10;50.00
29539;DHT22;16482;51.046;4.498;2023-05-07T15:02:11;25.10;50.10
29539;DHT22;16482;51.046;4.498;2023-05-07T15:04:38;25.10;50.00
29539;DHT22;16482;51.046;4.498;2023-05-07T15:07:05;25.00;50.10
29539;DHT22;16482;51.046;4.498;2023-05-07T15:09:39;25.10;49.90
29539;DHT22;16482;51.046;4.498;2023-05-07T15:12:04;25.10;49.80
29539;DHT22;16482;51.046;4.498;2023-05-07T15:14:40;25.10;50.00
29539;DHT22;16482;51.046;4.498;2023-05-07T15:17:11;25.10;49.90
29539;DHT22;16482;51.046;4.498;2023-05-07T15:19:39;25.10;50.00
29539;DHT22;16482;51.046;4.498;2023-05-07T15:22:08;25.10;50.00
29539;DHT22;16482;51.046;4.498;2023-05-07T15:24:41;25.10;50.20
29539;DHT22;16482;51.046;4.498;2023-05-07T15:27:10;25.00;50.30
29539;DHT22;16482;51.046;4.498;2023-05-07T15:29:36;25.00;50.20
29539;DHT22;16482;51.046;4.498;2023-05-07T15:32:10;25.00;50.20
29539;DHT22;16482;51.046;4.498;2023-05-07T15:34:38;25.00;50.30
29539;DHT22;16482;51.046;4.498;2023-05-07T15:37:07;25.00;50.30
29539;DHT22;16482;51.046;4.498;2023-05-07T15:39:42;25.00;50.30
29539;DHT22;16482;51.046;4.498;2023-05-07T15:42:08;25.00;50.40
29539;DHT22;16482;51.046;4.498;2023-05-07T15:44:43;25.00;50.30
29539;DHT22;16482;51.046;4.498;2023-05-07T15:47:10;25.00;50.40
29539;DHT22;16482;51.046;4.498;2023-05-07T15:49:38;25.00;50.30
29539;DHT22;16482;51.046;4.498;2023-05-07T15:52:07;25.00;50.30
29539;DHT22;16482;51.046;4.498;2023-05-07T15:54:38;25.00;51.00
29539;DHT22;16482;51.046;4.498;2023-05-07T15:57:07;25.00;50.40
29539;DHT22;16482;51.046;4.498;2023-05-07T15:59:42;25.00;50.40
29539;DHT22;16482;51.046;4.498;2023-05-07T16:02:08;25.00;50.40
29539;DHT22;16482;51.046;4.498;2023-05-07T16:04:43;25.00;50.00